createdAt,value
2022-07-30T00:00:25.105Z,1.30
2022-07-30T00:02:53.439Z,1.37
2022-07-30T00:05:21.497Z,1.40
2022-07-30T00:07:49.462Z,1.33
2022-07-30T00:10:17.426Z,1.57
2022-07-30T00:12:45.577Z,1.50
2022-07-30T00:15:14.939Z,1.20
2022-07-30T00:17:42.964Z,1.37
2022-07-30T00:20:14.803Z,1.30
2022-07-30T00:22:42.887Z,1.33
2022-07-30T00:25:11.001Z,1.30
2022-07-30T00:27:39.012Z,1.53
2022-07-30T00:30:07.871Z,1.40
2022-07-30T00:32:37.188Z,1.43
2022-07-30T00:35:05.866Z,1.50
2022-07-30T00:37:33.839Z,1.40
2022-07-30T00:40:01.809Z,1.40
2022-07-30T00:42:38.762Z,1.50
2022-07-30T00:45:08.036Z,1.50
2022-07-30T00:47:37.537Z,1.33
2022-07-30T00:50:07.728Z,1.40
2022-07-30T00:52:36.379Z,1.37
2022-07-30T00:55:04.892Z,1.40
2022-07-30T00:57:33.144Z,1.60
2022-07-30T01:00:07.744Z,1.53
2022-07-30T01:02:37.217Z,1.50
2022-07-30T01:05:05.898Z,1.47
2022-07-30T01:07:34.399Z,1.40
2022-07-30T01:10:02.534Z,1.57
2022-07-30T01:12:30.479Z,1.67
2022-07-30T01:14:58.778Z,1.70
2022-07-30T01:17:26.846Z,1.50
2022-07-30T01:19:58.676Z,1.50
2022-07-30T01:22:38.084Z,1.47
2022-07-30T01:25:10.821Z,1.70
2022-07-30T01:27:44.217Z,1.60
2022-07-30T01:30:12.892Z,1.40
2022-07-30T01:32:44.050Z,1.30
2022-07-30T01:35:12.556Z,1.50
2022-07-30T01:37:40.567Z,1.40
2022-07-30T01:40:09.622Z,1.47
2022-07-30T01:42:37.721Z,1.57
2022-07-30T01:45:08.605Z,1.40
2022-07-30T01:47:36.850Z,1.43
2022-07-30T01:50:05.805Z,1.47
2022-07-30T01:52:39.070Z,1.40
2022-07-30T01:55:17.186Z,1.50
2022-07-30T01:57:46.382Z,1.60
2022-07-30T02:00:16.316Z,1.50
2022-07-30T02:02:50.442Z,1.57
2022-07-30T02:05:18.416Z,1.50
2022-07-30T02:07:48.564Z,1.30
2022-07-30T02:10:18.668Z,1.50
2022-07-30T02:12:51.473Z,1.50
2022-07-30T02:15:26.478Z,1.70
2022-07-30T02:17:57.882Z,1.63
2022-07-30T02:20:28.530Z,1.50
2022-07-30T02:23:07.446Z,1.30
2022-07-30T02:25:36.523Z,1.47
2022-07-30T02:28:06.851Z,1.60
2022-07-30T02:30:37.422Z,1.60
2022-07-30T02:33:08.248Z,1.80
2022-07-30T02:35:36.249Z,1.70
2022-07-30T02:38:04.285Z,1.63
2022-07-30T02:40:32.523Z,1.47
2022-07-30T02:43:01.105Z,1.50
2022-07-30T02:45:30.312Z,1.53
2022-07-30T02:48:01.808Z,1.50
2022-07-30T02:50:29.848Z,1.60
2022-07-30T02:52:59.246Z,1.70
2022-07-30T02:55:28.490Z,1.60
2022-07-30T02:57:56.633Z,1.40
2022-07-30T03:00:25.577Z,1.50
2022-07-30T03:02:56.590Z,1.73
2022-07-30T03:05:26.639Z,1.80
2022-07-30T03:07:55.758Z,1.53
2022-07-30T03:10:23.767Z,1.50
2022-07-30T03:12:51.778Z,1.50
2022-07-30T03:15:19.761Z,1.40
2022-07-30T03:17:53.646Z,1.70
2022-07-30T03:20:27.499Z,1.70
2022-07-30T03:22:58.333Z,1.80
2022-07-30T03:25:27.479Z,1.60
2022-07-30T03:27:57.720Z,1.50
2022-07-30T03:30:25.943Z,1.60
2022-07-30T03:32:54.899Z,1.77
2022-07-30T03:35:24.875Z,1.50
2022-07-30T03:37:57.221Z,1.60
2022-07-30T03:40:25.633Z,1.70
2022-07-30T03:42:53.662Z,1.40
2022-07-30T03:45:24.644Z,1.40
2022-07-30T03:47:56.436Z,1.70
2022-07-30T03:50:25.290Z,1.40
2022-07-30T03:52:53.713Z,1.50
2022-07-30T03:55:23.081Z,1.47
2022-07-30T03:57:51.006Z,1.73
2022-07-30T04:00:22.483Z,1.60
2022-07-30T04:02:53.462Z,1.60
2022-07-30T04:05:53.525Z,1.60
2022-07-30T04:08:21.571Z,1.50
2022-07-30T04:10:51.458Z,1.60
2022-07-30T04:13:38.010Z,1.70
2022-07-30T04:16:39.284Z,1.77
2022-07-30T04:18:57.663Z,1.70
2022-07-30T04:21:26.866Z,1.70
2022-07-30T04:24:01.826Z,1.50
2022-07-30T04:26:34.796Z,1.60
2022-07-30T04:29:03.042Z,1.47
2022-07-30T04:31:38.430Z,1.50
2022-07-30T04:34:35.046Z,1.67
2022-07-30T04:37:05.353Z,1.53
2022-07-30T04:39:33.393Z,1.70
2022-07-30T04:42:02.894Z,1.50
2022-07-30T04:44:36.329Z,1.57
2022-07-30T04:47:25.316Z,1.70
2022-07-30T04:50:14.563Z,1.53
2022-07-30T04:52:44.336Z,1.60
2022-07-30T04:55:15.378Z,1.50
2022-07-30T04:57:48.140Z,1.50
2022-07-30T05:00:17.201Z,1.47
2022-07-30T05:02:45.598Z,1.50
2022-07-30T05:05:13.743Z,1.70
2022-07-30T05:07:41.834Z,1.70
2022-07-30T05:10:11.768Z,1.70
2022-07-30T05:12:40.154Z,1.83
2022-07-30T05:15:10.613Z,1.60
2022-07-30T05:17:39.159Z,1.70
2022-07-30T05:20:11.541Z,1.60
2022-07-30T05:23:04.049Z,1.50
2022-07-30T05:25:32.382Z,1.80
2022-07-30T05:28:14.347Z,1.50
2022-07-30T05:30:44.484Z,1.70
2022-07-30T05:33:17.441Z,1.63
2022-07-30T05:35:45.965Z,1.70
2022-07-30T05:38:14.414Z,1.60
2022-07-30T05:40:57.627Z,1.67
2022-07-30T05:43:57.872Z,1.70
2022-07-30T05:46:29.279Z,1.53
2022-07-30T05:48:57.421Z,1.70
2022-07-30T05:51:25.918Z,1.90
2022-07-30T05:53:54.005Z,1.83
2022-07-30T05:56:48.217Z,1.70
2022-07-30T05:59:20.631Z,1.70
2022-07-30T06:02:18.861Z,1.97
2022-07-30T06:05:02.236Z,1.73
2022-07-30T06:07:30.379Z,1.67
2022-07-30T06:10:01.564Z,1.63
2022-07-30T06:12:29.993Z,1.60
2022-07-30T06:14:58.269Z,1.90
2022-07-30T06:17:41.225Z,1.60
2022-07-30T06:20:20.037Z,1.60
2022-07-30T06:22:57.357Z,1.77
2022-07-30T06:25:33.368Z,1.67
2022-07-30T06:28:10.712Z,1.90
2022-07-30T06:30:49.830Z,1.90
2022-07-30T06:33:19.307Z,1.90
2022-07-30T06:35:48.911Z,1.80
2022-07-30T06:38:20.302Z,1.90
2022-07-30T06:41:02.952Z,1.90
2022-07-30T06:43:53.603Z,1.87
2022-07-30T06:46:45.659Z,1.90
2022-07-30T06:49:15.545Z,2.00
2022-07-30T06:51:43.567Z,1.80
2022-07-30T06:54:11.698Z,1.87
2022-07-30T06:57:03.050Z,1.90
2022-07-30T06:59:32.830Z,1.80
2022-07-30T07:02:27.161Z,2.00
2022-07-30T07:05:15.822Z,1.80
2022-07-30T07:07:58.325Z,1.90
2022-07-30T07:10:28.966Z,1.83
2022-07-30T07:13:32.048Z,1.83
2022-07-30T07:16:02.037Z,1.80
2022-07-30T07:18:31.930Z,1.80
2022-07-30T07:21:06.200Z,1.87
2022-07-30T07:23:41.352Z,1.70
2022-07-30T07:26:15.129Z,1.80
2022-07-30T07:28:43.247Z,1.57
2022-07-30T07:31:11.290Z,1.93
2022-07-30T07:33:59.100Z,2.03
2022-07-30T07:36:28.456Z,1.90
2022-07-30T07:38:56.549Z,2.00
2022-07-30T07:41:24.603Z,1.80
2022-07-30T07:43:52.519Z,1.90
2022-07-30T07:46:33.685Z,1.80
2022-07-30T07:49:07.093Z,1.70
2022-07-30T07:51:48.300Z,1.90
2022-07-30T07:54:23.114Z,1.80
2022-07-30T07:56:53.238Z,1.80
2022-07-30T07:59:36.294Z,1.90
2022-07-30T08:02:10.721Z,1.83
2022-07-30T08:04:57.550Z,1.90
2022-07-30T08:07:53.166Z,1.90
2022-07-30T08:10:39.484Z,1.90
2022-07-30T08:13:49.060Z,1.90
2022-07-30T08:16:21.385Z,1.97
2022-07-30T08:18:51.965Z,1.80
2022-07-30T08:21:26.949Z,2.03
2022-07-30T08:23:56.374Z,1.80
2022-07-30T08:26:24.510Z,1.70
2022-07-30T08:28:52.936Z,1.90
2022-07-30T08:31:23.124Z,1.93
2022-07-30T08:33:51.107Z,2.10
2022-07-30T08:36:22.778Z,1.93
2022-07-30T08:38:56.042Z,1.90
2022-07-30T08:41:24.137Z,1.80
2022-07-30T08:43:52.186Z,1.90
2022-07-30T08:46:21.756Z,2.10
2022-07-30T08:49:11.594Z,2.10
2022-07-30T08:51:40.992Z,1.90
2022-07-30T08:54:25.344Z,2.00
2022-07-30T08:56:53.305Z,1.80
2022-07-30T08:59:21.235Z,1.93
2022-07-30T09:01:49.805Z,1.90
2022-07-30T09:04:17.881Z,1.83
2022-07-30T09:06:47.158Z,2.10
2022-07-30T09:09:20.818Z,2.30
2022-07-30T09:11:50.227Z,1.93
2022-07-30T09:14:18.734Z,1.90
2022-07-30T09:16:46.785Z,1.90
2022-07-30T09:19:16.380Z,1.90
2022-07-30T09:21:55.790Z,1.80
2022-07-30T09:24:32.690Z,2.20
2022-07-30T09:27:20.909Z,1.80
2022-07-30T09:29:58.233Z,2.23
2022-07-30T09:33:01.586Z,2.90
2022-07-30T09:36:06.928Z,2.33
2022-07-30T09:39:12.074Z,2.40
2022-07-30T09:42:18.934Z,2.20
2022-07-30T09:44:48.629Z,2.33
2022-07-30T09:47:31.651Z,2.40
2022-07-30T09:50:07.823Z,2.30
2022-07-30T09:52:36.113Z,2.60
2022-07-30T09:55:12.480Z,2.40
2022-07-30T09:57:56.651Z,2.47
2022-07-30T10:00:28.420Z,2.53
2022-07-30T10:03:21.638Z,2.30
2022-07-30T10:06:20.488Z,2.40
2022-07-30T10:08:50.556Z,2.40
2022-07-30T10:11:23.454Z,2.50
2022-07-30T10:13:57.389Z,2.30
2022-07-30T10:16:27.833Z,2.50
2022-07-30T10:18:59.975Z,2.10
2022-07-30T10:22:03.369Z,2.50
2022-07-30T10:24:57.563Z,2.27
2022-07-30T10:27:46.148Z,2.20
2022-07-30T10:30:28.151Z,2.13
2022-07-30T10:32:59.853Z,2.10
2022-07-30T10:35:34.333Z,2.30
2022-07-30T10:38:07.888Z,1.90
2022-07-30T10:40:39.386Z,2.10
2022-07-30T10:43:41.611Z,2.00
2022-07-30T10:46:20.127Z,2.10
2022-07-30T10:48:52.460Z,2.30
2022-07-30T10:51:25.588Z,2.27
2022-07-30T10:54:02.768Z,2.30
2022-07-30T10:56:33.096Z,2.30
2022-07-30T10:59:02.845Z,1.93
2022-07-30T11:02:08.935Z,1.90
2022-07-30T11:04:39.645Z,2.20
2022-07-30T11:07:31.245Z,2.20
2022-07-30T11:10:05.350Z,2.20
2022-07-30T11:12:55.974Z,2.17
2022-07-30T11:15:23.969Z,2.20
2022-07-30T11:18:02.650Z,2.30
2022-07-30T11:20:34.106Z,2.00
2022-07-30T11:23:30.641Z,2.00
2022-07-30T11:26:03.553Z,1.90
2022-07-30T11:28:39.661Z,1.70
2022-07-30T11:31:50.433Z,1.80
2022-07-30T11:34:30.557Z,2.00
2022-07-30T11:37:18.517Z,1.93
2022-07-30T11:40:10.359Z,1.60
2022-07-30T11:42:39.431Z,1.90
2022-07-30T11:45:26.760Z,2.00
2022-07-30T11:47:56.155Z,1.70
2022-07-30T11:50:25.430Z,1.77
2022-07-30T11:52:55.271Z,1.60
2022-07-30T11:55:24.403Z,2.10
2022-07-30T11:57:52.506Z,1.53
2022-07-30T12:00:20.717Z,1.40
2022-07-30T12:05:24.373Z,1.50
2022-07-30T12:07:59.747Z,1.60
2022-07-30T12:10:28.001Z,1.40
2022-07-30T12:13:08.112Z,1.60
2022-07-30T12:15:37.184Z,1.80
2022-07-30T12:18:24.559Z,1.40
2022-07-30T12:21:02.727Z,1.53
2022-07-30T12:23:32.217Z,1.30
2022-07-30T12:26:00.259Z,1.40
2022-07-30T12:28:29.220Z,1.77
2022-07-30T12:30:57.469Z,1.37
2022-07-30T12:33:25.492Z,1.40
2022-07-30T12:35:54.295Z,1.40
2022-07-30T12:38:22.747Z,1.30
2022-07-30T12:40:57.492Z,1.70
2022-07-30T12:43:43.927Z,1.60
2022-07-30T12:46:15.038Z,1.40
2022-07-30T12:48:57.022Z,1.30
2022-07-30T12:51:27.137Z,1.47
2022-07-30T12:53:56.286Z,1.33
2022-07-30T12:56:26.327Z,1.40
2022-07-30T12:58:54.712Z,1.27
2022-07-30T13:01:40.511Z,1.50
2022-07-30T13:04:11.500Z,1.30
2022-07-30T13:06:40.425Z,1.37
2022-07-30T13:09:10.067Z,1.40
2022-07-30T13:11:48.996Z,1.40
2022-07-30T13:14:17.616Z,1.43
2022-07-30T13:16:45.598Z,1.30
2022-07-30T13:19:13.617Z,1.20
2022-07-30T13:21:49.696Z,1.60
2022-07-30T13:24:18.475Z,1.30
2022-07-30T13:26:47.903Z,1.40
2022-07-30T13:29:20.619Z,1.43
2022-07-30T13:31:48.570Z,1.40
2022-07-30T13:34:16.572Z,1.40
2022-07-30T13:36:44.751Z,1.30
2022-07-30T13:39:13.146Z,1.40
2022-07-30T13:41:44.178Z,1.20
2022-07-30T13:44:13.548Z,1.40
2022-07-30T13:46:41.765Z,1.53
2022-07-30T13:49:10.675Z,1.20
2022-07-30T13:51:38.882Z,1.30
2022-07-30T13:54:07.298Z,1.40
2022-07-30T13:56:40.845Z,1.30
2022-07-30T13:59:13.152Z,1.40
2022-07-30T14:01:41.189Z,1.10
2022-07-30T14:04:09.444Z,1.20
2022-07-30T14:06:37.401Z,1.40
2022-07-30T14:09:05.491Z,1.20
2022-07-30T14:11:33.466Z,1.50
2022-07-30T14:14:01.435Z,1.40
2022-07-30T14:16:46.172Z,1.30
2022-07-30T14:19:23.131Z,1.30
2022-07-30T14:21:53.550Z,1.30
2022-07-30T14:24:22.022Z,1.20
2022-07-30T14:26:54.442Z,1.33
2022-07-30T14:29:27.228Z,1.43
2022-07-30T14:31:56.707Z,1.20
2022-07-30T14:34:24.699Z,1.17
2022-07-30T14:36:52.750Z,1.47
2022-07-30T14:39:21.048Z,1.60
2022-07-30T14:41:55.597Z,1.30
2022-07-30T14:44:23.986Z,1.20
2022-07-30T14:46:52.942Z,1.30
2022-07-30T14:49:23.845Z,0.90
2022-07-30T14:51:52.321Z,1.30
2022-07-30T14:54:20.258Z,1.10
2022-07-30T14:56:48.272Z,1.23
2022-07-30T14:59:16.778Z,1.27
2022-07-30T15:01:50.353Z,1.20
2022-07-30T15:04:18.392Z,1.10
2022-07-30T15:06:47.711Z,1.30
2022-07-30T15:09:15.707Z,1.10
2022-07-30T15:12:08.954Z,1.40
2022-07-30T15:14:34.315Z,1.20
2022-07-30T15:17:04.504Z,1.40
2022-07-30T15:19:32.767Z,0.90
2022-07-30T15:22:02.966Z,1.07
2022-07-30T15:24:34.224Z,1.30
2022-07-30T15:27:02.393Z,1.10
2022-07-30T15:29:30.849Z,1.00
2022-07-30T15:32:00.615Z,1.23
2022-07-30T15:34:33.828Z,1.10
2022-07-30T15:37:05.995Z,1.10
2022-07-30T15:39:34.151Z,1.00
2022-07-30T15:42:02.632Z,1.00
2022-07-30T15:44:30.923Z,1.00
2022-07-30T15:47:01.901Z,1.17
2022-07-30T15:49:29.963Z,0.90
2022-07-30T15:51:59.807Z,1.20
2022-07-30T15:54:30.864Z,1.10
2022-07-30T15:57:01.470Z,1.20
2022-07-30T15:59:29.871Z,1.20
2022-07-30T16:01:57.862Z,1.20
2022-07-30T16:04:31.057Z,1.20
2022-07-30T16:07:00.612Z,1.30
2022-07-30T16:09:30.010Z,1.40
2022-07-30T16:11:58.133Z,1.40
2022-07-30T16:14:26.439Z,1.63
2022-07-30T16:16:54.472Z,1.50
2022-07-30T16:19:22.425Z,1.80
2022-07-30T16:21:50.404Z,1.70
2022-07-30T16:24:18.363Z,1.80
2022-07-30T16:26:47.669Z,2.00
2022-07-30T16:29:15.664Z,2.07
2022-07-30T16:31:43.821Z,2.20
2022-07-30T16:34:11.794Z,2.10
2022-07-30T16:36:39.740Z,2.10
2022-07-30T16:39:10.357Z,2.10
2022-07-30T16:41:38.349Z,2.17
2022-07-30T16:44:07.760Z,2.07
2022-07-30T16:46:37.766Z,2.30
2022-07-30T16:49:08.657Z,2.10
2022-07-30T16:51:36.669Z,1.90
2022-07-30T16:54:05.596Z,1.90
2022-07-30T16:56:33.572Z,1.90
2022-07-30T16:59:01.516Z,1.93
2022-07-30T17:01:32.118Z,1.77
2022-07-30T17:04:00.143Z,1.77
2022-07-30T17:06:28.111Z,2.13
2022-07-30T17:08:56.022Z,1.90
2022-07-30T17:11:47.759Z,1.80
2022-07-30T17:14:12.381Z,1.80
2022-07-30T17:16:42.110Z,2.00
2022-07-30T17:19:10.027Z,1.70
2022-07-30T17:21:42.843Z,1.70
2022-07-30T17:24:13.582Z,2.10
2022-07-30T17:26:43.099Z,1.50
2022-07-30T17:29:14.094Z,1.60
2022-07-30T17:31:44.592Z,1.50
2022-07-30T17:34:13.748Z,1.80
2022-07-30T17:36:41.971Z,1.80
2022-07-30T17:39:18.157Z,1.60
2022-07-30T17:42:03.378Z,1.60
2022-07-30T17:44:31.411Z,1.80
2022-07-30T17:47:00.732Z,1.40
2022-07-30T17:49:28.802Z,1.50
2022-07-30T17:51:56.792Z,1.97
2022-07-30T17:54:24.734Z,2.80
2022-07-30T17:56:52.744Z,2.53
2022-07-30T17:59:20.673Z,2.30
2022-07-30T18:01:48.613Z,2.30
2022-07-30T18:04:17.946Z,2.20
2022-07-30T18:06:45.916Z,2.00
2022-07-30T18:09:13.906Z,2.00
2022-07-30T18:11:41.851Z,2.63
2022-07-30T18:14:09.820Z,2.20
2022-07-30T18:16:37.788Z,2.13
2022-07-30T18:19:05.690Z,2.07
2022-07-30T18:21:35.085Z,2.37
2022-07-30T18:24:07.234Z,2.50
2022-07-30T18:26:38.601Z,2.30
2022-07-30T18:29:08.894Z,2.00
2022-07-30T18:31:42.329Z,2.33
2022-07-30T18:34:10.298Z,2.43
2022-07-30T18:36:39.594Z,2.30
2022-07-30T18:39:07.552Z,2.03
2022-07-30T18:41:38.458Z,2.00
2022-07-30T18:44:06.427Z,2.07
2022-07-30T18:46:36.351Z,2.57
2022-07-30T18:49:21.251Z,2.10
2022-07-30T18:51:53.809Z,2.27
2022-07-30T18:54:24.431Z,2.60
2022-07-30T18:56:52.419Z,2.10
2022-07-30T18:59:20.375Z,2.10
2022-07-30T19:01:48.593Z,1.97
2022-07-30T19:04:16.581Z,2.20
2022-07-30T19:06:44.564Z,2.00
2022-07-30T19:09:17.637Z,2.03
2022-07-30T19:11:46.180Z,2.00
2022-07-30T19:14:14.378Z,1.90
2022-07-30T19:16:42.491Z,2.13
2022-07-30T19:19:13.415Z,1.90
2022-07-30T19:21:41.479Z,1.90
2022-07-30T19:24:10.985Z,1.70
2022-07-30T19:26:40.436Z,2.40
2022-07-30T19:29:09.656Z,2.13
2022-07-30T19:31:37.692Z,2.10
2022-07-30T19:34:07.031Z,2.00
2022-07-30T19:36:35.082Z,2.10
2022-07-30T19:39:07.398Z,2.33
2022-07-30T19:41:40.373Z,1.80
2022-07-30T19:44:10.910Z,1.80
2022-07-30T19:46:41.683Z,2.20
2022-07-30T19:49:10.785Z,1.87
2022-07-30T19:52:10.133Z,2.17
2022-07-30T19:54:26.863Z,1.90
2022-07-30T19:56:54.823Z,1.93
2022-07-30T19:59:45.765Z,1.90
2022-07-30T20:02:18.231Z,2.10
2022-07-30T20:04:47.853Z,1.80
2022-07-30T20:07:15.792Z,2.10
2022-07-30T20:09:44.775Z,2.00
2022-07-30T20:12:16.512Z,2.00
2022-07-30T20:14:46.548Z,2.07
2022-07-30T20:17:14.625Z,2.10
2022-07-30T20:19:47.834Z,1.80
2022-07-30T20:22:18.042Z,2.00
2022-07-30T20:24:49.516Z,1.70
2022-07-30T20:27:37.470Z,2.07
2022-07-30T20:30:07.991Z,1.80
2022-07-30T20:32:36.008Z,1.80
2022-07-30T20:35:04.430Z,1.80
2022-07-30T20:37:33.222Z,2.00
2022-07-30T20:40:10.094Z,2.07
2022-07-30T20:42:39.220Z,1.70
2022-07-30T20:45:12.164Z,2.00
2022-07-30T20:47:41.392Z,1.90
2022-07-30T20:50:10.710Z,1.93
2022-07-30T20:52:40.114Z,1.90
2022-07-30T20:55:09.331Z,1.80
2022-07-30T20:57:57.175Z,1.90
2022-07-30T21:00:26.781Z,1.70
2022-07-30T21:02:54.797Z,1.70
2022-07-30T21:05:22.954Z,1.90
2022-07-30T21:07:56.368Z,1.90
2022-07-30T21:10:26.099Z,1.60
2022-07-30T21:12:58.364Z,1.93
2022-07-30T21:15:33.603Z,1.90
2022-07-30T21:18:01.897Z,1.70
2022-07-30T21:20:31.142Z,1.80
2022-07-30T21:23:06.612Z,1.70
2022-07-30T21:26:02.021Z,1.70
2022-07-30T21:28:28.181Z,1.90
2022-07-30T21:30:57.743Z,1.73
2022-07-30T21:33:30.975Z,1.73
2022-07-30T21:35:59.747Z,1.73
2022-07-30T21:38:30.447Z,1.90
2022-07-30T21:41:00.189Z,1.73
2022-07-30T21:43:30.543Z,1.70
2022-07-30T21:46:03.901Z,1.57
2022-07-30T21:48:35.803Z,2.07
2022-07-30T21:51:03.793Z,2.00
2022-07-30T21:53:44.875Z,1.77
2022-07-30T21:56:21.489Z,1.60
2022-07-30T21:58:49.889Z,1.80
2022-07-30T22:01:22.499Z,1.60
2022-07-30T22:04:02.955Z,1.67
2022-07-30T22:06:38.477Z,1.50
2022-07-30T22:09:18.865Z,1.73
2022-07-30T22:12:00.931Z,1.60
2022-07-30T22:14:29.859Z,1.80
2022-07-30T22:17:00.698Z,1.57
2022-07-30T22:19:32.414Z,1.80
2022-07-30T22:22:02.028Z,1.70
2022-07-30T22:24:48.304Z,1.57
2022-07-30T22:27:16.258Z,1.57
2022-07-30T22:29:44.415Z,1.57
2022-07-30T22:32:13.774Z,1.60
2022-07-30T22:34:44.990Z,1.60
2022-07-30T22:37:21.195Z,1.53
2022-07-30T22:39:51.812Z,1.60
2022-07-30T22:42:20.835Z,1.70
2022-07-30T22:44:52.222Z,1.70
2022-07-30T22:47:51.134Z,1.60
2022-07-30T22:50:10.761Z,1.23
2022-07-30T22:52:44.262Z,1.50
2022-07-30T22:55:22.900Z,1.37
2022-07-30T22:57:51.491Z,1.30
2022-07-30T23:00:28.349Z,1.50
2022-07-30T23:02:57.998Z,1.30
2022-07-30T23:05:26.216Z,1.67
2022-07-30T23:07:54.287Z,1.30
2022-07-30T23:10:23.032Z,1.80
2022-07-30T23:12:53.813Z,1.23
2022-07-30T23:15:21.985Z,1.50
2022-07-30T23:17:49.935Z,1.57
2022-07-30T23:20:21.816Z,1.37
2022-07-30T23:22:49.844Z,1.47
2022-07-30T23:25:17.845Z,1.70
2022-07-30T23:27:46.604Z,1.40
2022-07-30T23:30:15.025Z,1.50
2022-07-30T23:32:42.958Z,1.30
2022-07-30T23:35:11.190Z,1.30
2022-07-30T23:37:48.135Z,1.50
2022-07-30T23:40:17.122Z,1.50
2022-07-30T23:42:45.153Z,1.50
2022-07-30T23:45:15.236Z,1.50
2022-07-30T23:48:00.212Z,1.40
2022-07-30T23:50:31.162Z,1.30
2022-07-30T23:53:04.862Z,1.30
2022-07-30T23:55:36.034Z,1.33
2022-07-30T23:58:04.031Z,1.30
